地図

経路データ

SID SEASON NUMBER BASIN SUBBASIN NAME ISO_TIME NATURE LAT LON WMO_WIND WMO_PRES WMO_AGENCY TRACK_TYPE DIST2LAND LANDFALL IFLAG USA_AGENCY USA_ATCF_ID USA_LAT USA_LON USA_RECORD USA_STATUS USA_WIND USA_PRES USA_SSHS USA_R34_NE USA_R34_SE USA_R34_SW USA_R34_NW USA_R50_NE USA_R50_SE USA_R50_SW USA_R50_NW USA_R64_NE USA_R64_SE USA_R64_SW USA_R64_NW USA_POCI USA_ROCI USA_RMW USA_EYE TOKYO_LAT TOKYO_LON TOKYO_GRADE TOKYO_WIND TOKYO_PRES TOKYO_R50_DIR TOKYO_R50_LONG TOKYO_R50_SHORT TOKYO_R30_DIR TOKYO_R30_LONG TOKYO_R30_SHORT TOKYO_LAND CMA_LAT CMA_LON CMA_CAT CMA_WIND CMA_PRES HKO_LAT HKO_LON HKO_CAT HKO_WIND HKO_PRES NEWDELHI_LAT NEWDELHI_LON NEWDELHI_GRADE NEWDELHI_WIND NEWDELHI_PRES NEWDELHI_CI NEWDELHI_DP NEWDELHI_POCI REUNION_LAT REUNION_LON REUNION_TYPE REUNION_WIND REUNION_PRES REUNION_TNUM REUNION_CI REUNION_RMW REUNION_R34_NE REUNION_R34_SE REUNION_R34_SW REUNION_R34_NW REUNION_R50_NE REUNION_R50_SE REUNION_R50_SW REUNION_R50_NW REUNION_R64_NE REUNION_R64_SE REUNION_R64_SW REUNION_R64_NW BOM_LAT BOM_LON BOM_TYPE BOM_WIND BOM_PRES BOM_TNUM BOM_CI BOM_RMW BOM_R34_NE BOM_R34_SE BOM_R34_SW BOM_R34_NW BOM_R50_NE BOM_R50_SE BOM_R50_SW BOM_R50_NW BOM_R64_NE BOM_R64_SE BOM_R64_SW BOM_R64_NW BOM_ROCI BOM_POCI BOM_EYE BOM_POS_METHOD BOM_PRES_METHOD NADI_LAT NADI_LON NADI_CAT NADI_WIND NADI_PRES WELLINGTON_LAT WELLINGTON_LON WELLINGTON_WIND WELLINGTON_PRES DS824_LAT DS824_LON DS824_STAGE DS824_WIND DS824_PRES TD9636_LAT TD9636_LON TD9636_STAGE TD9636_WIND TD9636_PRES TD9635_LAT TD9635_LON TD9635_WIND TD9635_PRES TD9635_ROCI NEUMANN_LAT NEUMANN_LON NEUMANN_CLASS NEUMANN_WIND NEUMANN_PRES MLC_LAT MLC_LON MLC_CLASS MLC_WIND MLC_PRES USA_GUST BOM_GUST BOM_GUST_PER REUNION_GUST REUNION_GUST_PER USA_SEAHGT USA_SEARAD_NE USA_SEARAD_SE USA_SEARAD_SW USA_SEARAD_NW STORM_SPEED STORM_DIR
1968254N32282 1968 88 NA NA NOT_NAMED 1968-09-10 00:00:00 TS 32.0000 -78.0000 25 hurdat_atl main 172 144 O_____________ hurdat_atl AL161968 32.0000 -78.0000 TD 25 -1 10 9
1968254N32282 1968 88 NA NA NOT_NAMED 1968-09-10 03:00:00 TS 32.5050 -77.9076 main 144 104 P_____________ AL161968 32.5050 -77.9076 TD 27 -1 10 14
1968254N32282 1968 88 NA NA NOT_NAMED 1968-09-10 06:00:00 TS 33.0000 -77.7000 30 hurdat_atl main 104 78 O_____________ hurdat_atl AL161968 33.0000 -77.7000 TD 30 -1 11 28
1968254N32282 1968 88 NA NA NOT_NAMED 1968-09-10 09:00:00 TS 33.4847 -77.2892 main 78 78 P_____________ AL161968 33.4847 -77.2892 TD 30 -1 13 40
1968254N32282 1968 88 NA NA NOT_NAMED 1968-09-10 12:00:00 TS 34.0000 -76.7000 30 hurdat_atl main 78 43 O_____________ hurdat_atl AL161968 34.0000 -76.7000 TD 30 -1 15 46
1968254N32282 1968 88 NA NA NOT_NAMED 1968-09-10 15:00:00 TS 34.5408 -75.9498 main 57 49 P_____________ AL161968 34.5408 -75.9498 TD 30 -1 17 46
1968254N32282 1968 88 NA NA NOT_NAMED 1968-09-10 18:00:00 TS 35.2000 -75.2000 30 hurdat_atl main 63 56 O_____________ hurdat_atl AL161968 35.2000 -75.2000 TD 30 -1 19 36
1968254N32282 1968 88 NA NA NOT_NAMED 1968-09-10 21:00:00 TS 36.0396 -74.6249 main 83 83 P_____________ AL161968 36.0396 -74.6249 TD 32 -1 20 24
1968254N32282 1968 88 NA NA NOT_NAMED 1968-09-11 00:00:00 TS 37.0000 -74.2000 35 hurdat_atl main 143 111 O_____________ hurdat_atl AL161968 37.0000 -74.2000 TS 35 0 20 16
1968254N32282 1968 88 NA NA NOT_NAMED 1968-09-11 03:00:00 TS 37.9489 -73.9213 main 113 84 P_____________ AL161968 37.9489 -73.9213 TS 40 0 20 11
1968254N32282 1968 88 NA NA NOT_NAMED 1968-09-11 06:00:00 TS 39.0000 -73.7000 45 hurdat_atl main 75 43 O_____________ hurdat_atl AL161968 39.0000 -73.7000 TS 45 0 23 10
1968254N32282 1968 88 NA NA NOT_NAMED 1968-09-11 09:00:00 TS 40.1727 -73.4213 main 45 20 P_____________ AL161968 40.1727 -73.4213 TS 52 0 24 11
1968254N32282 1968 88 NA NA NOT_NAMED 1968-09-11 10:00:00 TS 40.6000 -73.3000 55 997 hurdat_atl main 11 0 O_____________ hurdat_atl AL161968 40.6000 -73.3000 L TS 55 997 0 27 13
1968254N32282 1968 88 NA NA NOT_NAMED 1968-09-11 12:00:00 TS 41.5000 -73.0000 55 997 hurdat_atl main 0 0 O_____________ hurdat_atl AL161968 41.5000 -73.0000 TS 55 997 0 27 13
1968254N32282 1968 88 NA NA NOT_NAMED 1968-09-11 15:00:00 TS 42.8054 -72.6253 main 0 0 P_____________ AL161968 42.8054 -72.6253 TS 50 0 26 12
1968254N32282 1968 88 NA NA NOT_NAMED 1968-09-11 18:00:00 ET 44.0000 -72.3000 45 hurdat_atl main 0 0 O_____________ hurdat_atl AL161968 44.0000 -72.3000 EX 45 -4 23 12
1968254N32282 1968 88 NA NA NOT_NAMED 1968-09-11 21:00:00 ET 45.0523 -71.9484 main 0 0 P_____________ AL161968 45.0523 -71.9484 EX 42 -4 21 14
1968254N32282 1968 88 NA NA NOT_NAMED 1968-09-12 00:00:00 ET 46.0000 -71.6000 40 hurdat_atl main 0 0 O_____________ hurdat_atl AL161968 46.0000 -71.6000 EX 40 -4 19 14
1968254N32282 1968 88 NA NA NOT_NAMED 1968-09-12 03:00:00 ET 46.9372 -71.2633 main 0 0 P_____________ AL161968 46.9372 -71.2633 EX 40 -4 19 15
1968254N32282 1968 88 NA NA NOT_NAMED 1968-09-12 06:00:00 ET 47.8000 -70.9000 40 hurdat_atl main 0 0 O_____________ hurdat_atl AL161968 47.8000 -70.9000 EX 40 -4 18 16
1968254N32282 1968 88 NA NA NOT_NAMED 1968-09-12 09:00:00 ET 48.6465 -70.5245 main 0 0 P_____________ AL161968 48.6465 -70.5245 EX 37 -4 16 22
1968254N32282 1968 88 NA NA NOT_NAMED 1968-09-12 12:00:00 ET 49.3000 -70.0000 35 hurdat_atl main 0 0 O_____________ hurdat_atl AL161968 49.3000 -70.0000 EX 35 -4 13 39
1968254N32282 1968 88 NA NA NOT_NAMED 1968-09-12 15:00:00 ET 49.6543 -69.2538 main 0 0 P_____________ AL161968 49.6543 -69.2538 EX 35 -4 12 66
1968254N32282 1968 88 NA NA NOT_NAMED 1968-09-12 18:00:00 ET 49.8000 -68.3000 35 hurdat_atl main 0 0 O_____________ hurdat_atl AL161968 49.8000 -68.3000 EX 35 -4 13 80
1968254N32282 1968 88 NA NA NOT_NAMED 1968-09-12 21:00:00 ET 49.8796 -67.2080 main 0 0 P_____________ AL161968 49.8796 -67.2080 EX 37 -4 15 86
1968254N32282 1968 88 NA NA NOT_NAMED 1968-09-13 00:00:00 ET 49.9000 -66.0000 40 hurdat_atl main 34 21 O_____________ hurdat_atl AL161968 49.9000 -66.0000 EX 40 -4 16 87
1968254N32282 1968 88 NA NA NOT_NAMED 1968-09-13 03:00:00 ET 49.9491 -64.7648 main 21 11 P_____________ AL161968 49.9491 -64.7648 EX 40 -4 16 86
1968254N32282 1968 88 NA NA NOT_NAMED 1968-09-13 06:00:00 ET 50.0000 -63.5000 40 hurdat_atl main 18 18 O_____________ hurdat_atl AL161968 50.0000 -63.5000 EX 40 -4 16 86
1968254N32282 1968 88 NA NA NOT_NAMED 1968-09-13 09:00:00 ET 50.0498 -62.2124 main 30 0 P_____________ AL161968 50.0498 -62.2124 EX 40 -4 16 86
1968254N32282 1968 88 NA NA NOT_NAMED 1968-09-13 12:00:00 ET 50.1000 -61.0000 40 hurdat_atl main 11 11 O_____________ hurdat_atl AL161968 50.1000 -61.0000 EX 40 -4 15 87
1968254N32282 1968 88 NA NA NOT_NAMED 1968-09-13 15:00:00 ET 50.1335 -59.9464 main 22 17 P_____________ AL161968 50.1335 -59.9464 EX 40 -4 13 86
1968254N32282 1968 88 NA NA NOT_NAMED 1968-09-13 18:00:00 ET 50.2000 -59.0000 40 hurdat_atl main 43 37 O_____________ hurdat_atl AL161968 50.2000 -59.0000 EX 40 -4 12 81
1968254N32282 1968 88 NA NA NOT_NAMED 1968-09-13 21:00:00 ET 50.3269 -58.0626 main 37 0 P_____________ AL161968 50.3269 -58.0626 EX 42 -4 12 75
1968254N32282 1968 88 NA NA NOT_NAMED 1968-09-14 00:00:00 ET 50.5000 -57.2000 45 hurdat_atl main 0 0 O_____________ hurdat_atl AL161968 50.5000 -57.2000 EX 45 -4 11 72
1968254N32282 1968 88 NA NA NOT_NAMED 1968-09-14 03:00:00 ET 50.6770 -56.4042 main 0 0 P_____________ AL161968 50.6770 -56.4042 EX 45 -4 10 67
1968254N32282 1968 88 NA NA NOT_NAMED 1968-09-14 06:00:00 ET 50.9000 -55.7000 45 hurdat_atl main 13 13 O_____________ hurdat_atl AL161968 50.9000 -55.7000 EX 45 -4 10 59
1968254N32282 1968 88 NA NA NOT_NAMED 1968-09-14 09:00:00 ET 51.1845 -55.0623 main 35 35 P_____________ AL161968 51.1845 -55.0623 EX 45 -4 10 51
1968254N32282 1968 88 NA NA NOT_NAMED 1968-09-14 12:00:00 ET 51.5000 -54.5000 45 hurdat_atl main 68 68 O_____________ hurdat_atl AL161968 51.5000 -54.5000 EX 45 -4 9 48
1968254N32282 1968 88 NA NA NOT_NAMED 1968-09-14 15:00:00 ET 51.7921 -53.9838 main 108 108 P_____________ AL161968 51.7921 -53.9838 EX 45 -4 9 46
1968254N32282 1968 88 NA NA NOT_NAMED 1968-09-14 18:00:00 ET 52.1000 -53.5000 45 hurdat_atl main 146 146 O_____________ hurdat_atl AL161968 52.1000 -53.5000 EX 45 -4 9 43
1968254N32282 1968 88 NA NA NOT_NAMED 1968-09-14 21:00:00 ET 52.4498 -52.9997 main 175 175 P_____________ AL161968 52.4498 -52.9997 EX 45 -4 9 41
1968254N32282 1968 88 NA NA NOT_NAMED 1968-09-15 00:00:00 ET 52.8000 -52.5000 45 hurdat_atl main 212 212 O_____________ hurdat_atl AL161968 52.8000 -52.5000 EX 45 -4 9 43
1968254N32282 1968 88 NA NA NOT_NAMED 1968-09-15 03:00:00 ET 53.1073 -51.9991 main 252 252 P_____________ AL161968 53.1073 -51.9991 EX 45 -4 8 45
1968254N32282 1968 88 NA NA NOT_NAMED 1968-09-15 06:00:00 ET 53.4000 -51.5000 45 hurdat_atl main 284 284 O_____________ hurdat_atl AL161968 53.4000 -51.5000 EX 45 -4 8 45
1968254N32282 1968 88 NA NA NOT_NAMED 1968-09-15 09:00:00 ET 53.6998 -50.9993 main 318 318 P_____________ AL161968 53.6998 -50.9993 EX 45 -4 8 45
1968254N32282 1968 88 NA NA NOT_NAMED 1968-09-15 12:00:00 ET 54.0000 -50.5000 45 hurdat_atl main 355 355 O_____________ hurdat_atl AL161968 54.0000 -50.5000 EX 45 -4 8 44
1968254N32282 1968 88 NA NA NOT_NAMED 1968-09-15 15:00:00 ET 54.2995 -50.0213 main 394 394 P_____________ AL161968 54.2995 -50.0213 EX 45 -4 8 44
1968254N32282 1968 88 NA NA NOT_NAMED 1968-09-15 18:00:00 ET 54.6000 -49.5000 45 hurdat_atl main 434 434 O_____________ hurdat_atl AL161968 54.6000 -49.5000 EX 45 -4 9 47
1968254N32282 1968 88 NA NA NOT_NAMED 1968-09-15 21:00:00 ET 54.9147 -48.8875 main 480 480 P_____________ AL161968 54.9147 -48.8875 EX 45 -4 10 51
1968254N32282 1968 88 NA NA NOT_NAMED 1968-09-16 00:00:00 ET 55.2000 -48.2000 45 hurdat_atl main 532 532 O_____________ hurdat_atl AL161968 55.2000 -48.2000 EX 45 -4 9 58
1968254N32282 1968 88 NA NA NOT_NAMED 1968-09-16 03:00:00 ET 55.4220 -47.4789 main 533 499 P_____________ AL161968 55.4220 -47.4789 EX 45 -4 9 65
1968254N32282 1968 88 NA NA NOT_NAMED 1968-09-16 06:00:00 ET 55.6000 -46.7000 45 hurdat_atl main 499 469 O_____________ hurdat_atl AL161968 55.6000 -46.7000 EX 45 -4 10 69
1968254N32282 1968 88 NA NA NOT_NAMED 1968-09-16 09:00:00 ET 55.7717 -45.8874 main 469 454 P_____________ AL161968 55.7717 -45.8874 EX 45 -4 10 73
1968254N32282 1968 88 NA NA NOT_NAMED 1968-09-16 12:00:00 ET 55.9000 -45.0000 45 hurdat_atl main 454 443 O_____________ hurdat_atl AL161968 55.9000 -45.0000 EX 45 -4 11 79
1968254N32282 1968 88 NA NA NOT_NAMED 1968-09-16 15:00:00 ET 55.9725 -44.0069 main 444 444 P_____________ AL161968 55.9725 -44.0069 EX 45 -4 11 85
1968254N32282 1968 88 NA NA NOT_NAMED 1968-09-16 18:00:00 ET 56.0000 -43.0000 45 hurdat_atl main 452 452 O_____________ hurdat_atl AL161968 56.0000 -43.0000 EX 45 -4 11 88
1968254N32282 1968 88 NA NA NOT_NAMED 1968-09-16 21:00:00 ET 56.0063 -42.0919 main 457 457 P_____________ AL161968 56.0063 -42.0919 EX 42 -4 10 90
1968254N32282 1968 88 NA NA NOT_NAMED 1968-09-17 00:00:00 ET 56.0000 -41.2000 40 hurdat_atl main 467 467 O_____________ hurdat_atl AL161968 56.0000 -41.2000 EX 40 -4 10 90
1968254N32282 1968 88 NA NA NOT_NAMED 1968-09-17 03:00:00 ET 55.9993 -40.2653 main 482 482 P_____________ AL161968 55.9993 -40.2653 EX 40 -4 11 90
1968254N32282 1968 88 NA NA NOT_NAMED 1968-09-17 06:00:00 ET 56.0000 -39.3000 40 hurdat_atl main 505 O_____________ hurdat_atl AL161968 56.0000 -39.3000 EX 40 -4 11 90

IBTrACS Databaseについて

本データベースは、米国NOAAが公開する1842年以降の世界の熱帯低気圧のベストトラックデータアーカイブInternational Best Track Archive for Climate Stewardship (IBTrACS)を、ウェブで閲覧しやすい形式に変換したものです。

最終更新日:2022-05-26